Time;durP1;ratioP1;P1;durP2;ratioP2;P2;SDS_P1;SDS_P2;PMS_P1;PMS_P2;Temp;Humidity;BMP_temperature;BMP_pressure;BME280_temperature;BME280_humidity;BME280_pressure;Samples;Min_cycle;Max_cycle;Signal;HPM_P1;HPM_P2
2022/02/17 00:00:15;;;;;;;36.13;20.00;;;;;;;9.14;88.81;100451.70;1680473;84;21461;-63
2022/02/17 00:02:42;;;;;;;31.97;18.65;;;;;;;9.27;87.32;100449.36;1686233;84;20940;-63
2022/02/17 00:05:10;;;;;;;29.67;17.42;;;;;;;9.32;87.00;100427.57;1665563;84;21156;-64
2022/02/17 00:07:38;;;;;;;30.27;17.92;;;;;;;9.29;87.47;100415.39;1686814;84;20873;-70
2022/02/17 00:10:07;;;;;;;30.88;18.67;;;;;;;9.93;83.48;100415.46;1686814;84;21171;-63
2022/02/17 00:12:33;;;;;;;27.37;16.42;;;;;;;9.98;80.66;100414.44;1687106;84;21114;-63
2022/02/17 00:15:00;;;;;;;36.88;18.42;;;;;;;9.90;80.74;100408.48;1686336;84;21608;-64
2022/02/17 00:17:26;;;;;;;32.93;19.65;;;;;;;9.81;83.02;100410.35;1686868;84;21183;-64
2022/02/17 00:19:53;;;;;;;38.38;21.27;;;;;;;9.98;81.48;100400.11;1687001;84;21010;-67
2022/02/17 00:22:20;;;;;;;35.03;18.90;;;;;;;10.03;81.99;100400.88;1685151;84;20987;-69
2022/02/17 00:24:46;;;;;;;33.67;18.82;;;;;;;9.87;84.63;100404.92;1687767;84;21108;-63
2022/02/17 00:27:13;;;;;;;40.92;21.93;;;;;;;9.95;84.60;100393.14;1687174;84;20994;-64
2022/02/17 00:29:39;;;;;;;32.20;18.50;;;;;;;10.01;83.57;100387.24;1686704;84;21108;-63
2022/02/17 00:32:07;;;;;;;38.23;20.10;;;;;;;9.93;84.36;100377.70;1686687;84;21501;-71
2022/02/17 00:34:34;;;;;;;33.92;20.68;;;;;;;9.94;84.71;100381.91;1686510;84;21181;-68
2022/02/17 00:37:04;;;;;;;34.65;19.42;;;;;;;10.33;81.48;100376.22;1687556;84;21023;-64
2022/02/17 00:39:34;;;;;;;37.95;20.65;;;;;;;10.69;77.32;100371.93;1687017;84;21446;-64
2022/02/17 00:42:01;;;;;;;35.98;20.27;;;;;;;10.95;74.47;100361.02;1686817;84;21201;-64
2022/02/17 00:44:28;;;;;;;31.33;17.67;;;;;;;10.55;76.18;100364.11;1687652;84;20972;-68
2022/02/17 00:47:00;;;;;;;38.48;20.23;;;;;;;10.78;75.75;100360.09;1686274;84;21016;-64
2022/02/17 00:49:26;;;;;;;43.10;21.90;;;;;;;10.54;77.52;100354.68;1675915;84;21079;-63
2022/02/17 00:51:54;;;;;;;44.55;20.88;;;;;;;10.74;75.25;100344.50;1687780;84;21135;-62
2022/02/17 00:54:22;;;;;;;43.70;22.10;;;;;;;10.50;77.90;100341.20;1686299;84;21192;-64
2022/02/17 00:56:49;;;;;;;43.05;21.57;;;;;;;10.57;80.28;100334.75;1687962;84;21592;-63
2022/02/17 00:59:16;;;;;;;43.45;20.82;;;;;;;10.21;84.84;100340.16;1680997;84;22383;-63
2022/02/17 01:01:49;;;;;;;41.25;21.12;;;;;;;10.41;83.57;100331.84;1686843;84;21020;-64
2022/02/17 01:04:16;;;;;;;37.53;19.80;;;;;;;10.57;82.74;100330.37;1684989;84;22926;-72
2022/02/17 01:06:44;;;;;;;36.93;19.85;;;;;;;10.68;82.13;100323.86;1682520;83;21154;-64
2022/02/17 01:09:13;;;;;;;37.45;21.30;;;;;;;10.46;81.88;100319.09;1684514;83;21012;-64
2022/02/17 01:11:41;;;;;;;45.58;22.17;;;;;;;10.71;81.81;100321.70;1683005;84;20952;-64
2022/02/17 01:14:08;;;;;;;47.20;23.75;;;;;;;10.69;80.83;100322.89;1683638;83;20932;-65
2022/02/17 01:16:36;;;;;;;45.03;22.52;;;;;;;10.89;79.07;100327.84;1683544;83;21046;-65
2022/02/17 01:19:06;;;;;;;40.80;20.80;;;;;;;10.69;79.22;100321.59;1682144;83;21153;-65
2022/02/17 01:21:33;;;;;;;45.38;23.67;;;;;;;10.75;80.48;100326.55;1683447;83;21501;-66
2022/02/17 01:24:00;;;;;;;41.23;22.62;;;;;;;10.84;79.05;100321.06;1682942;85;21505;-67
2022/02/17 01:26:27;;;;;;;42.40;22.60;;;;;;;11.44;73.72;100313.36;1682889;85;21525;-64
2022/02/17 01:28:55;;;;;;;39.92;21.27;;;;;;;11.74;69.15;100311.88;1681963;85;21122;-64
2022/02/17 01:31:24;;;;;;;36.42;20.25;;;;;;;11.30;69.40;100316.84;1673707;83;21280;-65
2022/02/17 01:33:52;;;;;;;40.38;20.55;;;;;;;11.08;74.44;100316.51;1681787;85;21066;-65
2022/02/17 01:36:19;;;;;;;33.75;18.82;;;;;;;11.12;74.68;100311.23;1684126;83;20959;-65
2022/02/17 01:38:46;;;;;;;37.65;19.87;;;;;;;10.85;78.14;100304.92;1682214;85;21082;-69
2022/02/17 01:41:15;;;;;;;36.58;18.60;;;;;;;10.82;79.10;100304.78;1683418;83;21162;-66
2022/02/17 01:43:42;;;;;;;29.85;18.15;;;;;;;10.94;79.01;100306.42;1683827;83;21149;-64
2022/02/17 01:46:08;;;;;;;28.23;17.40;;;;;;;10.96;78.92;100315.68;1684873;83;21067;-64
2022/02/17 01:48:37;;;;;;;30.08;16.73;;;;;;;10.89;79.14;100314.80;1683524;83;20987;-69
2022/02/17 01:51:04;;;;;;;28.45;16.45;;;;;;;10.96;79.23;100318.29;1681917;84;21029;-64
2022/02/17 01:53:32;;;;;;;27.13;16.93;;;;;;;11.11;76.90;100310.93;1682950;85;22395;-65
2022/02/17 01:55:59;;;;;;;28.85;16.02;;;;;;;10.80;79.70;100308.09;1684414;83;21497;-65
2022/02/17 01:58:29;;;;;;;30.92;17.12;;;;;;;10.92;79.56;100313.13;1680927;84;20960;-65
2022/02/17 02:00:57;;;;;;;25.90;16.60;;;;;;;10.86;80.18;100301.31;1679488;83;21024;-71
2022/02/17 02:03:25;;;;;;;26.57;16.87;;;;;;;10.90;80.55;100309.88;1683199;84;21091;-64
2022/02/17 02:05:56;;;;;;;29.12;16.82;;;;;;;10.53;82.94;100297.84;1665074;84;21066;-64
2022/02/17 02:08:24;;;;;;;29.20;16.73;;;;;;;10.37;89.11;100305.83;1688565;83;21178;-63
2022/02/17 02:10:52;;;;;;;26.45;16.15;;;;;;;10.32;90.52;100298.55;1662792;84;21003;-63
2022/02/17 02:13:19;;;;;;;26.93;16.40;;;;;;;10.40;91.24;100299.77;1685698;83;20956;-63
2022/02/17 02:15:49;;;;;;;30.57;17.48;;;;;;;10.33;93.13;100296.26;1685960;84;21034;-64
2022/02/17 02:18:17;;;;;;;24.80;15.68;;;;;;;10.43;92.38;100297.30;1686939;82;22427;-63
2022/02/17 02:20:54;;;;;;;27.50;15.95;;;;;;;10.61;90.91;100289.11;1684626;84;21247;-64
2022/02/17 02:23:22;;;;;;;25.82;16.20;;;;;;;10.52;92.05;100292.79;1683946;84;21073;-63
2022/02/17 02:25:52;;;;;;;26.77;15.90;;;;;;;10.51;92.65;100293.78;1691957;83;21098;-63
2022/02/17 02:28:23;;;;;;;26.80;16.65;;;;;;;10.58;92.60;100292.08;1685923;84;22353;-66
2022/02/17 02:30:50;;;;;;;29.65;17.32;;;;;;;10.72;90.98;100283.43;1686891;84;20956;-65
2022/02/17 02:33:18;;;;;;;24.37;15.10;;;;;;;10.59;93.46;100284.56;1686788;84;21177;-72
2022/02/17 02:35:45;;;;;;;26.07;16.75;;;;;;;10.59;94.98;100285.86;1686025;84;22221;-72
2022/02/17 02:38:12;;;;;;;26.52;16.57;;;;;;;10.54;96.98;100286.41;1686026;84;21086;-65
2022/02/17 02:40:39;;;;;;;27.07;16.00;;;;;;;10.61;96.81;100283.90;1686529;84;21034;-64
2022/02/17 02:43:06;;;;;;;28.60;16.05;;;;;;;10.59;96.83;100287.97;1687082;84;21015;-64
2022/02/17 02:45:33;;;;;;;27.20;15.72;;;;;;;10.77;96.05;100284.98;1687222;84;21136;-72
2022/02/17 02:48:09;;;;;;;25.30;16.20;;;;;;;10.78;94.96;100283.17;1665725;84;21121;-65
2022/02/17 02:50:36;;;;;;;27.55;15.45;;;;;;;10.83;95.64;100282.12;1687724;84;20968;-64
2022/02/17 02:53:04;;;;;;;28.32;17.90;;;;;;;11.02;93.92;100285.44;1687870;84;21034;-66
2022/02/17 02:55:31;;;;;;;27.30;15.88;;;;;;;10.96;94.23;100281.78;1687537;84;21520;-73
2022/02/17 02:57:59;;;;;;;28.17;16.32;;;;;;;10.64;97.25;100276.99;1687090;84;21120;-64
2022/02/17 03:00:26;;;;;;;27.30;17.48;;;;;;;10.64;98.73;100275.69;1682025;84;21012;-63
2022/02/17 03:02:53;;;;;;;31.07;18.57;;;;;;;10.73;97.23;100270.70;1688844;84;20955;-66
2022/02/17 03:05:21;;;;;;;26.55;16.15;;;;;;;10.67;98.30;100267.00;1685173;83;21529;-64
2022/02/17 03:07:48;;;;;;;26.95;16.48;;;;;;;10.54;99.60;100268.17;1683336;83;22169;-64
2022/02/17 03:10:16;;;;;;;25.48;16.55;;;;;;;10.41;100.00;100265.39;1676148;83;21147;-64
2022/02/17 03:12:43;;;;;;;31.80;18.30;;;;;;;10.61;100.00;100263.84;1670758;85;21080;-65
2022/02/17 03:15:10;;;;;;;29.50;17.32;;;;;;;10.63;100.00;100267.06;1665752;85;21048;-66
2022/02/17 03:17:38;;;;;;;27.90;17.25;;;;;;;10.77;99.39;100257.60;1667139;85;20924;-72
2022/02/17 03:20:09;;;;;;;27.98;17.23;;;;;;;10.64;100.00;100256.94;1670510;85;21095;-64
2022/02/17 03:22:38;;;;;;;26.97;17.48;;;;;;;10.44;100.00;100255.91;1674844;85;21245;-64
2022/02/17 03:25:08;;;;;;;28.77;17.20;;;;;;;10.78;99.99;100241.45;1672447;85;21004;-63
2022/02/17 03:27:35;;;;;;;27.67;16.45;;;;;;;10.75;98.63;100240.52;1640245;85;21569;-73
2022/02/17 03:30:11;;;;;;;27.25;17.27;;;;;;;10.66;99.58;100242.44;1669200;85;20964;-62
2022/02/17 03:32:39;;;;;;;23.92;16.15;;;;;;;10.74;100.00;100242.32;1665093;85;21004;-65
2022/02/17 03:35:07;;;;;;;24.35;15.65;;;;;;;10.79;99.68;100248.28;1642856;85;22284;-67
2022/02/17 03:37:36;;;;;;;23.12;15.65;;;;;;;10.92;98.65;100245.33;1669096;85;21042;-65
2022/02/17 03:40:05;;;;;;;23.85;15.70;;;;;;;10.95;97.78;100238.94;1667784;85;21114;-65
2022/02/17 03:42:40;;;;;;;26.95;16.45;;;;;;;10.91;97.93;100238.50;1667641;85;21027;-64
2022/02/17 03:45:11;;;;;;;24.72;14.68;;;;;;;10.93;97.99;100237.00;1666671;85;21007;-65
2022/02/17 03:47:39;;;;;;;24.65;15.05;;;;;;;10.81;99.68;100226.25;1677346;85;21164;-68
2022/02/17 03:50:09;;;;;;;23.10;14.50;;;;;;;10.84;99.77;100221.98;1671217;85;21108;-63
2022/02/17 03:52:38;;;;;;;24.10;15.15;;;;;;;10.70;100.00;100215.81;1665192;85;21495;-64
2022/02/17 03:55:16;;;;;;;23.65;15.48;;;;;;;10.81;100.00;100215.83;1664435;85;21771;-66
2022/02/17 03:57:44;;;;;;;25.17;14.90;;;;;;;10.89;100.00;100225.33;1666994;85;21124;-65
2022/02/17 04:00:15;;;;;;;23.45;15.28;;;;;;;10.82;100.00;100220.03;1672017;80;21210;-68
2022/02/17 04:02:44;;;;;;;22.00;14.07;;;;;;;10.91;100.00;100218.11;1710566;83;21010;-68
2022/02/17 04:05:12;;;;;;;26.60;15.60;;;;;;;10.81;100.00;100217.63;1701111;83;22083;-67
2022/02/17 04:07:40;;;;;;;23.07;14.18;;;;;;;10.61;100.00;100213.52;1710963;82;21006;-66
2022/02/17 04:10:09;;;;;;;22.17;14.53;;;;;;;10.57;100.00;100216.98;1706347;83;21383;-67
2022/02/17 04:12:37;;;;;;;26.07;16.40;;;;;;;10.94;100.00;100207.31;1713711;83;21315;-66
2022/02/17 04:15:05;;;;;;;22.02;15.10;;;;;;;10.66;100.00;100210.66;1713892;83;21069;-66
2022/02/17 04:17:35;;;;;;;;;;;;;;;10.73;100.00;100213.34;1716333;83;21055;-65
2022/02/17 04:20:15;;;;;;;26.23;15.90;;;;;;;10.96;100.00;100206.14;1710562;83;20553;-70
2022/02/17 04:23:02;;;;;;;25.70;16.80;;;;;;;11.03;100.00;100211.42;1706207;83;21034;-71
2022/02/17 04:25:39;;;;;;;27.00;16.60;;;;;;;10.94;100.00;100208.11;1701652;83;21161;-69
2022/02/17 04:28:17;;;;;;;31.25;17.23;;;;;;;10.90;100.00;100206.87;1711921;83;20998;-67
2022/02/17 04:30:44;;;;;;;24.45;15.15;;;;;;;10.86;100.00;100204.33;1715191;83;20995;-67
2022/02/17 04:33:11;;;;;;;24.32;15.88;;;;;;;10.91;100.00;100204.60;1714595;83;21140;-66
2022/02/17 04:35:46;;;;;;;28.40;16.80;;;;;;;10.91;100.00;100199.85;1713727;83;20892;-67
2022/02/17 04:38:14;;;;;;;27.67;17.55;;;;;;;11.02;100.00;100205.88;1724554;82;21201;-66
2022/02/17 04:43:29;;;;;;;25.27;16.17;;;;;;;10.87;100.00;100202.05;1715521;83;21055;-70
2022/02/17 04:45:55;;;;;;;28.45;17.50;;;;;;;11.08;100.00;100206.95;1714326;83;21086;-65
2022/02/17 04:48:22;;;;;;;28.27;17.82;;;;;;;10.82;100.00;100210.91;1715582;83;21023;-69
2022/02/17 04:50:49;;;;;;;29.18;18.05;;;;;;;11.00;100.00;100214.41;1714979;83;22821;-66
2022/02/17 04:53:15;;;;;;;23.87;15.78;;;;;;;10.84;100.00;100215.45;1715482;83;20998;-65
2022/02/17 04:55:44;;;;;;;26.20;16.77;;;;;;;10.98;100.00;100215.57;1713092;83;20955;-67
2022/02/17 04:58:12;;;;;;;26.70;16.42;;;;;;;11.01;100.00;100217.81;1708575;83;22243;-66
2022/02/17 05:00:39;;;;;;;27.58;16.70;;;;;;;11.12;100.00;100219.42;1736741;82;21042;-69
2022/02/17 05:03:23;;;;;;;25.08;17.12;;;;;;;11.04;100.00;100216.14;1711257;82;21107;-67
2022/02/17 05:05:51;;;;;;;26.70;17.48;;;;;;;11.07;100.00;100211.86;1709544;83;21461;-67
2022/02/17 05:08:21;;;;;;;25.53;17.03;;;;;;;10.62;100.00;100204.20;1714964;83;21062;-69
2022/02/17 05:10:48;;;;;;;26.40;16.42;;;;;;;10.34;100.00;100198.05;1714263;83;21023;-68
2022/02/17 05:13:16;;;;;;;23.62;16.25;;;;;;;10.48;100.00;100187.59;1714899;83;21003;-67
2022/02/17 05:15:44;;;;;;;28.67;18.30;;;;;;;10.46;100.00;100192.70;1714082;82;21153;-67
2022/02/17 05:18:13;;;;;;;63.92;44.27;;;;;;;10.41;100.00;100193.73;1701737;82;21599;-70
2022/02/17 05:20:40;;;;;;;62.65;39.18;;;;;;;10.23;100.00;100193.61;1717256;82;21117;-68
2022/02/17 05:23:14;;;;;;;49.35;29.70;;;;;;;10.19;100.00;100194.13;1691260;82;20920;-68
2022/02/17 05:25:58;;;;;;;73.02;42.23;;;;;;;10.29;100.00;100195.20;1710697;82;21137;-68
2022/02/17 05:28:35;;;;;;;108.27;51.55;;;;;;;10.35;100.00;100191.38;1707002;82;21251;-68
2022/02/17 05:31:06;;;;;;;64.47;33.92;;;;;;;10.46;100.00;100190.90;1706939;82;21972;-70
2022/02/17 05:33:35;;;;;;;59.05;35.70;;;;;;;10.72;100.00;100196.09;1704777;82;21474;-66
2022/02/17 05:36:09;;;;;;;84.80;50.00;;;;;;;10.70;100.00;100188.94;1705810;82;21021;-65
2022/02/17 05:38:37;;;;;;;81.60;45.48;;;;;;;10.79;100.00;100180.48;1700840;82;21548;-66
2022/02/17 05:41:18;;;;;;;73.12;41.55;;;;;;;10.79;100.00;100185.20;1706662;82;21246;-70
2022/02/17 05:43:45;;;;;;;76.70;45.03;;;;;;;10.88;100.00;100178.09;1675687;85;20976;-71
2022/02/17 05:46:11;;;;;;;71.40;42.15;;;;;;;10.73;100.00;100178.64;1715399;83;20998;-69
2022/02/17 05:48:38;;;;;;;58.10;36.28;;;;;;;10.86;100.00;100187.38;1709716;83;21827;-70
2022/02/17 05:51:05;;;;;;;64.60;39.67;;;;;;;10.96;100.00;100183.17;1709247;83;21502;-68
2022/02/17 05:53:32;;;;;;;33.73;21.20;;;;;;;11.07;100.00;100173.54;1709233;83;21318;-68
2022/02/17 05:55:58;;;;;;;29.25;20.12;;;;;;;11.23;100.00;100163.82;1708862;83;21125;-68
2022/02/17 05:58:27;;;;;;;30.68;21.12;;;;;;;11.08;100.00;100169.13;1713973;82;21658;-69
2022/02/17 06:00:54;;;;;;;35.65;24.65;;;;;;;11.37;100.00;100161.63;1742483;82;20912;-69
2022/02/17 06:03:21;;;;;;;28.47;17.82;;;;;;;11.50;100.00;100159.59;1742644;82;20971;-70
2022/02/17 06:05:48;;;;;;;30.30;18.57;;;;;;;11.56;100.00;100158.34;1731290;82;21209;-71
2022/02/17 06:08:14;;;;;;;31.48;19.17;;;;;;;11.75;100.00;100146.89;1720738;82;21074;-67
2022/02/17 06:10:43;;;;;;;30.15;18.10;;;;;;;11.89;100.00;100140.74;1719516;82;22279;-69
2022/02/17 06:13:11;;;;;;;30.68;17.85;;;;;;;11.68;100.00;100141.13;1693632;84;20990;-69
2022/02/17 06:15:38;;;;;;;29.70;18.60;;;;;;;11.89;100.00;100140.27;1651817;85;21082;-70
2022/02/17 06:18:05;;;;;;;29.50;17.62;;;;;;;11.09;100.00;100151.16;1712626;82;22170;-70
2022/02/17 06:20:32;;;;;;;24.27;15.70;;;;;;;11.75;100.00;100147.70;1712575;83;21551;-67
2022/02/17 06:23:04;;;;;;;24.95;14.93;;;;;;;11.71;100.00;100143.06;1714310;83;21050;-67
2022/02/17 06:25:32;;;;;;;22.90;14.23;;;;;;;11.66;100.00;100139.19;1709129;81;21049;-69
2022/02/17 06:27:59;;;;;;;19.95;13.35;;;;;;;11.90;100.00;100137.95;1708625;83;20993;-70
2022/02/17 06:30:26;;;;;;;20.05;13.68;;;;;;;11.89;100.00;100134.22;1700486;83;21132;-67
2022/02/17 06:32:55;;;;;;;17.02;12.43;;;;;;;11.89;100.00;100135.05;1698258;83;21105;-67
2022/02/17 06:35:32;;;;;;;20.05;13.40;;;;;;;12.03;100.00;100134.58;1699869;82;21097;-69
2022/02/17 06:38:00;;;;;;;17.02;12.05;;;;;;;12.24;99.17;100131.05;1706275;82;21045;-68
2022/02/17 06:40:27;;;;;;;16.57;11.95;;;;;;;12.48;96.93;100124.45;1711087;82;21098;-67
2022/02/17 06:42:54;;;;;;;21.30;11.90;;;;;;;12.60;97.50;100120.25;1712062;82;21141;-67
2022/02/17 06:45:21;;;;;;;16.90;12.60;;;;;;;12.82;96.22;100117.45;1708281;82;21086;-70
2022/02/17 06:47:47;;;;;;;18.27;13.13;;;;;;;12.99;92.65;100118.65;1708360;82;20979;-66
2022/02/17 06:50:15;;;;;;;16.42;11.35;;;;;;;13.15;88.11;100111.71;1704635;82;21004;-69
2022/02/17 06:52:42;;;;;;;16.73;11.60;;;;;;;13.58;80.85;100101.28;1710968;82;21126;-65
2022/02/17 06:55:10;;;;;;;20.12;12.88;;;;;;;13.25;80.92;100098.73;1707113;81;21145;-66
2022/02/17 06:57:36;;;;;;;21.57;13.28;;;;;;;13.11;80.11;100086.16;1710029;82;20988;-66
2022/02/17 07:00:06;;;;;;;23.83;13.30;;;;;;;13.10;80.89;100091.06;1709989;81;21087;-68
2022/02/17 07:02:33;;;;;;;20.97;12.75;;;;;;;13.12;79.86;100075.98;1700672;82;20995;-68
2022/02/17 07:05:01;;;;;;;22.55;13.28;;;;;;;12.53;85.44;100090.67;1696619;82;21548;-67
2022/02/17 07:07:28;;;;;;;26.73;14.93;;;;;;;12.46;90.86;100083.82;1698667;82;21128;-69
2022/02/17 07:09:56;;;;;;;23.67;14.63;;;;;;;12.51;92.67;100086.66;1687327;82;21482;-67
2022/02/17 07:12:26;;;;;;;26.70;15.08;;;;;;;12.74;91.05;100081.05;1694240;82;21130;-68
2022/02/17 07:14:56;;;;;;;28.10;16.42;;;;;;;12.88;88.09;100076.92;1694710;82;20948;-68
2022/02/17 07:17:21;;;;;;;26.87;15.23;;;;;;;12.92;82.26;100072.09;1693999;82;21090;-71
2022/02/17 07:19:51;;;;;;;23.70;15.05;;;;;;;12.70;80.44;100072.80;1698073;82;21369;-66
2022/02/17 07:22:18;;;;;;;24.98;15.00;;;;;;;12.73;80.73;100072.39;1695360;82;20900;-66
2022/02/17 07:24:45;;;;;;;24.63;15.28;;;;;;;12.47;83.76;100075.00;1695315;82;21065;-65
2022/02/17 07:27:11;;;;;;;23.45;13.72;;;;;;;12.39;84.69;100073.38;1692467;82;21071;-68
2022/02/17 07:29:38;;;;;;;19.95;13.13;;;;;;;12.79;81.31;100068.95;1693773;82;21107;-66
2022/02/17 07:32:07;;;;;;;19.90;12.10;;;;;;;12.89;77.37;100064.13;1693912;82;21146;-67
2022/02/17 07:34:34;;;;;;;23.07;13.45;;;;;;;12.84;75.32;100062.63;1694637;82;21055;-67
2022/02/17 07:37:00;;;;;;;19.10;12.45;;;;;;;12.63;75.76;100056.30;1697810;82;21039;-68
2022/02/17 07:39:30;;;;;;;19.85;11.75;;;;;;;12.73;75.04;100055.40;1694976;82;20998;-67
2022/02/17 07:41:56;;;;;;;19.45;12.55;;;;;;;12.83;73.84;100061.00;1694348;82;21616;-68
2022/02/17 07:44:26;;;;;;;19.40;11.28;;;;;;;12.84;74.71;100056.57;1693875;82;21116;-68
2022/02/17 07:46:54;;;;;;;17.35;10.95;;;;;;;12.87;73.80;100056.97;1693387;82;21075;-67
2022/02/17 07:49:20;;;;;;;17.37;10.25;;;;;;;12.66;75.13;100066.36;1694669;82;21874;-67
2022/02/17 07:51:47;;;;;;;17.62;11.10;;;;;;;12.63;75.99;100059.70;1697790;82;21070;-65
2022/02/17 07:54:13;;;;;;;17.77;10.93;;;;;;;12.69;76.63;100062.03;1694010;82;21542;-66
2022/02/17 07:56:40;;;;;;;17.40;11.40;;;;;;;12.74;76.79;100047.05;1695712;82;21365;-69
2022/02/17 07:59:07;;;;;;;15.18;10.18;;;;;;;12.93;75.43;100043.60;1705641;82;20936;-70
2022/02/17 08:01:33;;;;;;;15.38;10.90;;;;;;;13.02;75.76;100037.64;1702112;82;21022;-66
2022/02/17 08:04:01;;;;;;;15.23;10.72;;;;;;;13.09;73.50;100030.59;1725762;81;21062;-66
2022/02/17 08:06:27;;;;;;;14.63;9.98;;;;;;;12.76;76.02;100037.97;1698825;83;21039;-69
2022/02/17 08:08:54;;;;;;;16.80;10.43;;;;;;;12.87;76.26;100036.05;1665898;84;21138;-67
2022/02/17 08:11:20;;;;;;;17.70;11.10;;;;;;;12.95;74.89;100036.34;1658463;84;22245;-68
2022/02/17 08:13:47;;;;;;;16.48;11.25;;;;;;;13.17;72.62;100021.71;1686525;83;21389;-69
2022/02/17 08:16:14;;;;;;;16.67;11.12;;;;;;;13.05;73.70;100013.69;1663734;84;21094;-67
2022/02/17 08:18:42;;;;;;;17.85;10.75;;;;;;;11.20;94.47;100017.09;1665561;84;21094;-67
2022/02/17 08:21:09;;;;;;;16.75;11.65;;;;;;;11.64;99.23;100007.25;1700551;83;21154;-68
2022/02/17 08:23:38;;;;;;;17.90;11.48;;;;;;;12.36;87.98;99998.77;1665351;84;22708;-67
2022/02/17 08:26:07;;;;;;;18.77;11.57;;;;;;;12.16;89.97;100009.22;1669091;84;20953;-67
2022/02/17 08:28:35;;;;;;;21.07;11.78;;;;;;;12.30;89.20;99998.25;1665188;84;22327;-65
2022/02/17 08:31:01;;;;;;;19.25;12.53;;;;;;;12.43;87.31;99994.05;1669712;84;20992;-68
2022/02/17 08:33:28;;;;;;;21.93;12.90;;;;;;;12.17;90.89;99991.22;1685188;83;21163;-68
2022/02/17 08:35:55;;;;;;;22.25;14.35;;;;;;;12.49;88.87;99984.08;1654738;84;22184;-65
2022/02/17 08:38:29;;;;;;;24.90;13.40;;;;;;;12.49;87.22;99973.62;1655770;85;21112;-66
2022/02/17 08:40:50;;;;;;;56.25;46.92;;;;;;;12.38;87.87;99979.75;1655928;85;21601;-63
2022/02/17 08:43:18;;;;;;;94.10;62.15;;;;;;;12.28;90.62;99970.22;1669689;84;22205;-72
2022/02/17 08:45:45;;;;;;;183.55;111.15;;;;;;;12.26;89.73;99960.97;1679131;84;21163;-63
2022/02/17 08:48:11;;;;;;;77.00;56.02;;;;;;;12.45;88.78;99960.66;1665375;84;21011;-66
2022/02/17 08:50:40;;;;;;;27.93;23.22;;;;;;;12.92;81.55;99951.74;1664601;84;21588;-66
2022/02/17 08:53:07;;;;;;;21.55;15.13;;;;;;;12.63;83.48;99941.23;1661495;84;21053;-63
2022/02/17 08:55:34;;;;;;;17.50;12.20;;;;;;;12.65;82.95;99938.73;1664486;84;22445;-63
2022/02/17 08:58:01;;;;;;;17.37;13.53;;;;;;;13.05;79.46;99930.75;1656432;84;21069;-63
2022/02/17 09:00:29;;;;;;;17.87;11.33;;;;;;;12.94;77.48;99919.63;1662021;84;21028;-67
2022/02/17 09:02:56;;;;;;;24.45;13.85;;;;;;;12.91;79.63;99921.34;1653142;84;21003;-71
2022/02/17 09:05:24;;;;;;;26.00;14.23;;;;;;;13.28;77.62;99914.58;1626787;86;22588;-63
2022/02/17 09:07:51;;;;;;;19.32;11.78;;;;;;;13.20;76.84;99903.02;1639375;85;21149;-67
2022/02/17 09:10:18;;;;;;;25.32;20.50;;;;;;;13.25;76.40;99896.67;1632155;86;21573;-63
2022/02/17 09:12:46;;;;;;;24.75;16.85;;;;;;;13.35;75.67;99890.48;1643669;85;21133;-71
2022/02/17 09:15:13;;;;;;;40.10;31.05;;;;;;;13.23;76.58;99871.70;1629853;86;21838;-75
2022/02/17 09:17:42;;;;;;;18.25;11.85;;;;;;;13.25;76.80;99872.31;1642667;85;22396;-67
2022/02/17 09:20:11;;;;;;;20.55;11.88;;;;;;;13.69;71.96;99866.20;1628850;86;22064;-68
2022/02/17 09:22:37;;;;;;;18.57;11.25;;;;;;;13.58;70.53;99860.34;1620099;86;22110;-67
2022/02/17 09:25:05;;;;;;;18.65;11.40;;;;;;;13.41;72.41;99855.30;1631476;86;21078;-75
2022/02/17 09:27:33;;;;;;;19.02;11.30;;;;;;;13.30;74.78;99852.88;1643597;85;21518;-62
2022/02/17 09:30:03;;;;;;;18.42;11.68;;;;;;;13.41;74.30;99838.28;1647727;85;21224;-68
2022/02/17 09:32:31;;;;;;;18.05;12.90;;;;;;;13.74;70.00;99824.45;1641075;85;21220;-64
2022/02/17 09:34:58;;;;;;;20.25;11.57;;;;;;;13.87;67.67;99834.83;1620904;86;21157;-62
2022/02/17 09:37:26;;;;;;;19.05;11.88;;;;;;;13.92;68.41;99817.66;1626376;86;21028;-68
2022/02/17 09:39:55;;;;;;;31.93;21.23;;;;;;;13.93;69.00;99804.84;1619175;86;21616;-64
2022/02/17 09:42:22;;;;;;;33.48;24.63;;;;;;;14.04;66.90;99794.45;1639569;85;21164;-69
2022/02/17 09:44:49;;;;;;;23.07;17.67;;;;;;;13.95;67.97;99785.28;1636515;86;21097;-65
2022/02/17 09:47:15;;;;;;;17.57;12.25;;;;;;;13.92;66.27;99792.77;1615773;86;21157;-74
2022/02/17 09:49:44;;;;;;;22.10;16.90;;;;;;;13.82;66.94;99790.12;1615882;87;22205;-65
2022/02/17 09:52:13;;;;;;;18.00;11.80;;;;;;;13.90;67.00;99792.17;1655416;85;21545;-67
2022/02/17 09:54:40;;;;;;;16.52;11.20;;;;;;;13.90;65.32;99784.31;1634641;86;20931;-69
2022/02/17 09:57:06;;;;;;;18.27;11.45;;;;;;;13.87;65.86;99782.95;1627614;86;21535;-73
2022/02/17 09:59:34;;;;;;;18.07;11.50;;;;;;;14.03;64.83;99776.34;1653650;85;21144;-66
2022/02/17 10:02:04;;;;;;;16.42;11.12;;;;;;;14.28;62.78;99773.16;1630764;86;21134;-70
2022/02/17 10:04:33;;;;;;;17.02;11.05;;;;;;;12.88;79.43;99774.78;1661014;83;21060;-71
2022/02/17 10:07:04;;;;;;;19.75;12.00;;;;;;;13.82;67.44;99770.47;1700694;82;21072;-76
2022/02/17 10:09:42;;;;;;;18.60;10.88;;;;;;;14.24;63.62;99756.23;1702140;82;21020;-64
2022/02/17 10:12:15;;;;;;;24.63;16.10;;;;;;;14.39;60.11;99755.06;1661050;84;21162;-68
2022/02/17 10:14:44;;;;;;;27.87;17.12;;;;;;;13.70;61.83;99746.00;1658779;84;21108;-73
2022/02/17 10:17:14;;;;;;;18.32;13.03;;;;;;;13.56;64.42;99748.44;1658756;84;22512;-76
2022/02/17 10:19:47;;;;;;;20.80;15.93;;;;;;;14.19;60.83;99741.67;1665409;82;39478;-64
2022/02/17 10:22:29;;;;;;;20.05;12.93;;;;;;;14.41;59.32;99730.75;1672635;82;26969;-68
2022/02/17 10:24:53;;;;;;;21.60;13.50;;;;;;;14.33;58.05;99728.71;1701825;82;21543;-70
2022/02/17 10:27:29;;;;;;;23.92;16.87;;;;;;;13.73;62.08;99729.06;1706863;82;20953;-65
2022/02/17 10:30:09;;;;;;;23.40;17.30;;;;;;;13.62;62.88;99726.13;1702968;82;21805;-64
2022/02/17 10:32:56;;;;;;;21.55;13.08;;;;;;;13.61;63.63;99715.38;1703628;82;21043;-64
2022/02/17 10:35:25;;;;;;;17.67;11.93;;;;;;;13.70;63.17;99714.58;1707597;82;21553;-66
2022/02/17 10:37:55;;;;;;;16.32;10.85;;;;;;;13.72;62.59;99712.55;1708137;82;21078;-71
2022/02/17 10:40:33;;;;;;;18.73;11.75;;;;;;;13.90;60.99;99706.50;1683636;83;21299;-68
2022/02/17 10:43:12;;;;;;;23.87;15.60;;;;;;;14.01;59.86;99702.36;1706632;82;21106;-70
2022/02/17 10:45:42;;;;;;;15.58;11.70;;;;;;;13.96;60.36;99691.23;1702947;82;21486;-64
2022/02/17 10:48:15;;;;;;;41.20;22.95;;;;;;;13.99;60.03;99693.42;1702443;82;20968;-64
2022/02/17 10:50:46;;;;;;;20.92;15.18;;;;;;;14.15;59.43;99690.72;1703564;82;21066;-66
2022/02/17 10:53:18;;;;;;;18.23;13.08;;;;;;;14.30;59.02;99676.71;1702767;82;21087;-68
2022/02/17 10:55:57;;;;;;;17.60;12.98;;;;;;;14.50;58.05;99675.67;1703432;82;21042;-64
2022/02/17 10:58:40;;;;;;;36.05;29.72;;;;;;;14.21;58.86;99678.56;1702391;82;21094;-68
2022/02/17 11:01:07;;;;;;;62.97;46.87;;;;;;;14.32;58.48;99653.70;1696773;82;21028;-69
2022/02/17 11:03:38;;;;;;;56.15;50.52;;;;;;;14.43;58.11;99648.71;1709782;82;21115;-68
2022/02/17 11:06:10;;;;;;;29.12;25.55;;;;;;;14.34;58.66;99642.47;1693941;82;21053;-68
2022/02/17 11:08:40;;;;;;;15.27;10.83;;;;;;;14.40;58.23;99633.45;1703593;82;20912;-65
2022/02/17 11:11:07;;;;;;;318.73;125.50;;;;;;;14.33;57.78;99635.64;1691864;82;21240;-70
2022/02/17 11:13:33;;;;;;;46.73;33.20;;;;;;;14.48;57.17;99626.57;1687415;82;21819;-67
2022/02/17 11:16:04;;;;;;;22.37;13.43;;;;;;;14.72;56.06;99639.25;1653169;85;21624;-67
2022/02/17 11:18:32;;;;;;;18.37;11.70;;;;;;;14.66;56.13;99633.58;1693336;82;21167;-67